createdAt,value
2018-06-20T00:00:53.964Z,42.27
2018-06-20T00:01:53.960Z,42.36
2018-06-20T00:02:53.952Z,41.69
2018-06-20T00:03:53.950Z,41.69
2018-06-20T00:04:53.948Z,41.77
2018-06-20T00:05:53.946Z,42.36
2018-06-20T00:06:53.937Z,42.46
2018-06-20T00:07:53.937Z,42.34
2018-06-20T00:08:53.930Z,42.34
2018-06-20T00:09:53.980Z,42.05
2018-06-20T00:10:53.930Z,42.27
2018-06-20T00:11:53.918Z,43.1
2018-06-20T00:12:53.918Z,44.45
2018-06-20T00:13:53.913Z,45.23
2018-06-20T00:14:53.911Z,43.77
2018-06-20T00:15:53.649Z,41.77
2018-06-20T00:16:53.906Z,40.42
2018-06-20T00:17:53.901Z,40.33
2018-06-20T00:18:53.639Z,40.71
2018-06-20T00:19:53.891Z,42.14
2018-06-20T00:20:53.889Z,42.34
2018-06-20T00:21:53.892Z,43.1
2018-06-20T00:22:53.884Z,43.9
2018-06-20T00:23:53.880Z,44.35
2018-06-20T00:24:53.617Z,44.93
2018-06-20T00:25:53.872Z,45.43
2018-06-20T00:26:53.865Z,45.79
2018-06-20T00:27:53.863Z,45.31
2018-06-20T00:28:53.857Z,44.06
2018-06-20T00:29:53.854Z,42.72
2018-06-20T00:30:53.851Z,41.38
2018-06-20T00:31:53.851Z,42.34
2018-06-20T00:32:53.847Z,43.1
2018-06-20T00:33:53.581Z,44.35
2018-06-20T00:34:53.836Z,45.4
2018-06-20T00:35:53.834Z,46.55
2018-06-20T00:36:53.840Z,47.34
2018-06-20T00:37:53.837Z,48.28
2018-06-20T00:38:53.821Z,48.38
2018-06-20T00:39:53.828Z,48.28
2018-06-20T00:40:53.559Z,48.38
2018-06-20T00:41:53.811Z,48.38
2018-06-20T00:42:53.552Z,48.02
2018-06-20T00:43:53.806Z,46.17
2018-06-20T00:44:53.806Z,44.26
2018-06-20T00:45:53.543Z,42.44
2018-06-20T00:46:53.792Z,42.34
2018-06-20T00:47:53.794Z,41.09
2018-06-20T00:48:53.531Z,40.52
2018-06-20T00:49:53.525Z,39.75
2018-06-20T00:50:53.777Z,39.08
2018-06-20T00:51:53.519Z,39.28
2018-06-20T00:52:53.518Z,38.98
2018-06-20T00:53:53.770Z,37.45
2018-06-20T00:54:53.768Z,37.55
2018-06-20T00:55:53.503Z,37.26
2018-06-20T00:56:53.761Z,36.88
2018-06-20T00:57:53.501Z,36.02
2018-06-20T00:58:53.749Z,36.59
2018-06-20T00:59:53.742Z,37.74
2018-06-20T01:00:53.749Z,37.93
2018-06-20T01:01:53.740Z,36.3
2018-06-20T01:02:53.737Z,35.06
2018-06-20T01:03:53.738Z,33.53
2018-06-20T01:04:53.725Z,33.43
2018-06-20T01:05:53.723Z,32.86
2018-06-20T01:06:53.461Z,32.67
2018-06-20T01:07:53.712Z,32.76
2018-06-20T01:08:53.455Z,33.14
2018-06-20T01:09:53.709Z,34.29
2018-06-20T01:10:53.707Z,35.06
2018-06-20T01:11:54.223Z,35.25
2018-06-20T01:12:53.439Z,34.1
2018-06-20T01:13:53.693Z,33.04
2018-06-20T01:14:53.691Z,33.24
2018-06-20T01:15:53.681Z,32.95
2018-06-20T01:16:53.684Z,32.38
2018-06-20T01:17:53.420Z,33.81
2018-06-20T01:18:53.674Z,35.73
2018-06-20T01:19:53.669Z,36.11
2018-06-20T01:20:53.666Z,37.65
2018-06-20T01:21:53.668Z,38.51
2018-06-20T01:22:53.658Z,38.79
2018-06-20T01:23:53.656Z,37.74
2018-06-20T01:24:53.651Z,37.36
2018-06-20T01:25:53.643Z,38.03
2018-06-20T01:26:53.640Z,39.65
2018-06-20T01:27:53.638Z,41.28
2018-06-20T01:28:53.638Z,41.86
2018-06-20T01:29:53.631Z,43.39
2018-06-20T01:30:53.626Z,43.3
2018-06-20T01:31:53.629Z,43.77
2018-06-20T01:32:53.363Z,44.64
2018-06-20T01:33:53.615Z,44.73
2018-06-20T01:34:53.613Z,42.91
2018-06-20T01:35:53.605Z,40.71
2018-06-20T01:36:53.346Z,39.28
2018-06-20T01:37:53.606Z,37.65
2018-06-20T01:38:53.340Z,36.88
2018-06-20T01:39:53.593Z,36.3
2018-06-20T01:40:53.587Z,36.21
2018-06-20T01:41:53.583Z,34.87
2018-06-20T01:42:53.578Z,34.67
2018-06-20T01:43:53.577Z,34.39
2018-06-20T01:44:53.578Z,34.29
2018-06-20T01:45:53.578Z,34.29
2018-06-20T01:46:53.571Z,34.67
2018-06-20T01:47:53.562Z,34.96
2018-06-20T01:48:53.558Z,35.63
2018-06-20T01:49:53.557Z,36.11
2018-06-20T01:50:53.552Z,36.11
2018-06-20T01:51:53.292Z,37.36
2018-06-20T01:52:53.547Z,36.3
2018-06-20T01:53:53.283Z,35.63
2018-06-20T01:54:53.279Z,34.29
2018-06-20T01:55:53.531Z,34.67
2018-06-20T01:56:53.532Z,35.16
2018-06-20T01:57:53.535Z,35.16
2018-06-20T01:58:53.525Z,34.85
2018-06-20T01:59:53.518Z,34.28
2018-06-20T02:00:53.514Z,34.28
2018-06-20T02:01:53.253Z,34.08
2018-06-20T02:02:53.502Z,34.18
2018-06-20T02:03:53.245Z,33.99
2018-06-20T02:04:53.247Z,34.08
2018-06-20T02:05:53.502Z,34.85
2018-06-20T02:06:53.488Z,35.24
2018-06-20T02:07:53.484Z,35.88
2018-06-20T02:08:53.223Z,35.69
2018-06-20T02:09:53.478Z,34.45
2018-06-20T02:10:53.475Z,33.87
2018-06-20T02:11:53.468Z,33.3
2018-06-20T02:12:53.468Z,33.11
2018-06-20T02:13:53.458Z,31.96
2018-06-20T02:14:53.456Z,31.48
2018-06-20T02:15:53.194Z,30.61
2018-06-20T02:16:53.447Z,29.65
2018-06-20T02:17:53.446Z,29.74
2018-06-20T02:18:53.438Z,30.13
2018-06-20T02:19:53.434Z,30.61
2018-06-20T02:20:53.432Z,30.7
2018-06-20T02:21:53.171Z,30.13
2018-06-20T02:22:53.422Z,29.08
2018-06-20T02:23:53.162Z,29.08
2018-06-20T02:24:53.416Z,28.22
2018-06-20T02:25:53.418Z,27.55
2018-06-20T02:26:53.149Z,28.02
2018-06-20T02:27:53.446Z,28.12
2018-06-20T02:28:53.395Z,27.44
2018-06-20T02:29:53.390Z,27.34
2018-06-20T02:30:53.396Z,27.15
2018-06-20T02:31:53.385Z,26
2018-06-20T02:32:53.384Z,26.29
2018-06-20T02:33:53.374Z,26.29
2018-06-20T02:34:53.372Z,25.52
2018-06-20T02:35:53.375Z,25.71
2018-06-20T02:36:53.356Z,25.81
2018-06-20T02:37:53.097Z,25.62
2018-06-20T02:38:53.379Z,25.9
2018-06-20T02:39:53.353Z,26.37
2018-06-20T02:40:53.340Z,26.48
2018-06-20T02:41:53.333Z,25.62
2018-06-20T02:42:53.334Z,24.37
2018-06-20T02:43:53.329Z,22.55
2018-06-20T02:44:53.321Z,21.21
2018-06-20T02:45:53.313Z,20.92
2018-06-20T02:46:53.315Z,20.26
2018-06-20T02:47:53.046Z,19.87
2018-06-20T02:48:53.301Z,19.87
2018-06-20T02:49:53.038Z,18.35
2018-06-20T02:50:53.289Z,17.77
2018-06-20T02:51:53.293Z,17.86
2018-06-20T02:52:53.438Z,17.58
2018-06-20T02:53:53.275Z,17.77
2018-06-20T02:54:53.267Z,17.86
2018-06-20T02:55:53.261Z,18.44
2018-06-20T02:56:53.016Z,19.2
2018-06-20T02:57:52.995Z,19.11
2018-06-20T02:58:52.988Z,19.97
2018-06-20T02:59:53.240Z,20.45
2018-06-20T03:00:53.236Z,19.97
2018-06-20T03:01:53.259Z,20.06
2018-06-20T03:02:53.232Z,19.97
2018-06-20T03:03:52.965Z,19.11
2018-06-20T03:04:53.213Z,18.63
2018-06-20T03:05:53.208Z,18.25
2018-06-20T03:06:53.221Z,17.77
2018-06-20T03:07:53.201Z,16.91
2018-06-20T03:08:53.190Z,17.2
2018-06-20T03:09:52.930Z,17.1
2018-06-20T03:10:53.179Z,17.2
2018-06-20T03:11:52.919Z,16.91
2018-06-20T03:12:53.169Z,17
2018-06-20T03:13:53.166Z,17.2
2018-06-20T03:14:53.159Z,16.82
2018-06-20T03:15:52.896Z,15.67
2018-06-20T03:16:52.893Z,14.81
2018-06-20T03:17:53.145Z,13.95
2018-06-20T03:18:53.144Z,13.95
2018-06-20T03:19:53.133Z,14.04
2018-06-20T03:20:53.126Z,13.28
2018-06-20T03:21:52.863Z,13.37
2018-06-20T03:22:53.116Z,13.37
2018-06-20T03:23:53.110Z,13.09
2018-06-20T03:24:53.103Z,13.95
2018-06-20T03:25:53.096Z,13.76
2018-06-20T03:26:52.836Z,13.85
2018-06-20T03:27:53.095Z,13.66
2018-06-20T03:28:53.082Z,13.95
2018-06-20T03:29:53.080Z,13.18
2018-06-20T03:30:53.070Z,13.09
2018-06-20T03:31:52.808Z,12.9
2018-06-20T03:32:53.064Z,12.23
2018-06-20T03:33:53.068Z,11.56
2018-06-20T03:34:53.045Z,11.46
2018-06-20T03:35:53.039Z,11.18
2018-06-20T03:36:53.049Z,11.56
2018-06-20T03:37:53.029Z,11.85
2018-06-20T03:38:52.767Z,12.04
2018-06-20T03:39:52.764Z,12.61
2018-06-20T03:40:52.756Z,12.71
2018-06-20T03:41:53.004Z,12.32
2018-06-20T03:42:53.003Z,12.9
2018-06-20T03:43:52.999Z,12.8
2018-06-20T03:44:52.995Z,12.51
2018-06-20T03:45:52.987Z,12.9
2018-06-20T03:46:52.981Z,13.09
2018-06-20T03:47:52.977Z,12.99
2018-06-20T03:48:52.712Z,12.99
2018-06-20T03:49:52.968Z,13.47
2018-06-20T03:50:52.959Z,13.95
2018-06-20T03:51:52.952Z,13.28
2018-06-20T03:52:52.947Z,13.37
2018-06-20T03:53:52.941Z,13.09
2018-06-20T03:54:52.939Z,13.19
2018-06-20T03:55:52.929Z,13.09
2018-06-20T03:56:52.927Z,13.18
2018-06-20T03:57:52.917Z,13
2018-06-20T03:58:52.913Z,13
2018-06-20T03:59:52.906Z,13.95
2018-06-20T04:00:52.646Z,14.53
2018-06-20T04:01:52.895Z,14.72
2018-06-20T04:02:52.904Z,15.67
2018-06-20T04:03:52.628Z,15.87
2018-06-20T04:04:52.879Z,15.69
2018-06-20T04:05:52.876Z,16.45
2018-06-20T04:06:52.871Z,16.83
2018-06-20T04:07:52.610Z,17.31
2018-06-20T04:08:52.857Z,18.07
2018-06-20T04:09:52.856Z,18.94
2018-06-20T04:10:52.593Z,19.7
2018-06-20T04:11:52.597Z,19.89
2018-06-20T04:12:53.007Z,19.99
2018-06-20T04:13:52.835Z,19.6
2018-06-20T04:14:52.834Z,19.7
2018-06-20T04:15:52.823Z,19.8
2018-06-20T04:16:52.816Z,20.09
2018-06-20T04:17:52.810Z,20.09
2018-06-20T04:18:52.807Z,20.09
2018-06-20T04:19:52.800Z,20.09
2018-06-20T04:20:52.794Z,20.19
2018-06-20T04:21:52.792Z,20.19
2018-06-20T04:22:52.787Z,20.2
2018-06-20T04:23:52.785Z,19.9
2018-06-20T04:24:52.776Z,19.92
2018-06-20T04:25:52.772Z,20.2
2018-06-20T04:26:52.772Z,20.39
2018-06-20T04:27:52.760Z,20.78
2018-06-20T04:28:52.755Z,21.15
2018-06-20T04:29:52.753Z,22.31
2018-06-20T04:30:52.751Z,23.07
2018-06-20T04:31:52.745Z,24.41
2018-06-20T04:32:52.742Z,24.99
2018-06-20T04:33:52.746Z,23.65
2018-06-20T04:34:52.774Z,21.73
2018-06-20T04:35:52.724Z,20.87
2018-06-20T04:36:52.719Z,21.65
2018-06-20T04:37:52.715Z,21.36
2018-06-20T04:38:52.707Z,21.26
2018-06-20T04:39:52.707Z,22.03
2018-06-20T04:40:52.698Z,22.03
2018-06-20T04:41:52.696Z,23.27
2018-06-20T04:42:52.437Z,24.63
2018-06-20T04:43:52.690Z,26.26
2018-06-20T04:44:52.698Z,28.56
2018-06-20T04:45:52.679Z,31.82
2018-06-20T04:46:52.419Z,35.65
2018-06-20T04:47:52.669Z,38.43
2018-06-20T04:48:52.664Z,40.35
2018-06-20T04:49:52.668Z,41.31
2018-06-20T04:50:52.658Z,43.15
2018-06-20T04:51:52.659Z,46.5
2018-06-20T04:52:52.649Z,51.87
2018-06-20T04:53:52.647Z,55.04
2018-06-20T04:54:52.647Z,56.19
2018-06-20T04:55:52.641Z,56.96
2018-06-20T04:56:52.379Z,57.63
2018-06-20T04:57:52.634Z,58.01
2018-06-20T04:58:52.625Z,59.16
2018-06-20T04:59:52.367Z,61.37
2018-06-20T05:00:52.620Z,62.26
2018-06-20T05:01:52.617Z,61.88
2018-06-20T05:02:52.616Z,61.21
2018-06-20T05:03:52.610Z,61.69
2018-06-20T05:04:52.608Z,62.36
2018-06-20T05:05:52.605Z,62.84
2018-06-20T05:06:52.600Z,64.66
2018-06-20T05:07:52.594Z,68.12
2018-06-20T05:08:52.591Z,70.42
2018-06-20T05:09:52.590Z,71.09
2018-06-20T05:10:52.587Z,69.65
2018-06-20T05:11:52.587Z,68.4
2018-06-20T05:12:52.582Z,66.1
2018-06-20T05:13:52.573Z,65.14
2018-06-20T05:14:52.579Z,65.14
2018-06-20T05:15:52.320Z,65.81
2018-06-20T05:16:52.565Z,67.06
2018-06-20T05:17:52.561Z,68.88
2018-06-20T05:18:52.572Z,69.74
2018-06-20T05:19:52.556Z,69.84
2018-06-20T05:20:52.556Z,69.26
2018-06-20T05:21:52.552Z,68.73
2018-06-20T05:22:52.545Z,68.3
2018-06-20T05:23:52.542Z,68.82
2018-06-20T05:24:52.545Z,70.17
2018-06-20T05:25:52.283Z,71.22
2018-06-20T05:26:52.534Z,70.84
2018-06-20T05:27:52.580Z,71.41
2018-06-20T05:28:52.529Z,72.66
2018-06-20T05:29:52.527Z,73.52
2018-06-20T05:30:52.527Z,74.01
2018-06-20T05:31:52.521Z,73.72
2018-06-20T05:32:52.320Z,74.01
2018-06-20T05:33:52.519Z,72.28
2018-06-20T05:34:52.515Z,72.47
2018-06-20T05:35:52.510Z,72.89
2018-06-20T05:36:52.513Z,73.85
2018-06-20T05:37:52.508Z,72.69
2018-06-20T05:38:52.245Z,73.37
2018-06-20T05:39:52.513Z,75.1
2018-06-20T05:40:52.499Z,76.25
2018-06-20T05:41:52.241Z,76.64
2018-06-20T05:42:52.496Z,76.82
2018-06-20T05:43:52.233Z,79.55
2018-06-20T05:44:52.489Z,80.8
2018-06-20T05:45:52.483Z,80.51
2018-06-20T05:46:52.485Z,81.19
2018-06-20T05:47:52.486Z,81.99
2018-06-20T05:48:52.481Z,82.53
2018-06-20T05:49:52.475Z,82.67
2018-06-20T05:50:52.476Z,84.11
2018-06-20T05:51:52.472Z,85.55
2018-06-20T05:52:52.468Z,86.71
2018-06-20T05:53:52.536Z,88.44
2018-06-20T05:54:52.208Z,89.64
2018-06-20T05:55:52.464Z,91.46
2018-06-20T05:56:52.463Z,93.48
2018-06-20T05:57:52.460Z,94.68
2018-06-20T05:58:52.455Z,96.22
2018-06-20T05:59:52.458Z,97.28
2018-06-20T06:00:52.457Z,97.57
2018-06-20T06:01:52.194Z,96.89
2018-06-20T06:02:52.449Z,97.52
2018-06-20T06:03:52.475Z,97.24
2018-06-20T06:04:52.445Z,97.04
2018-06-20T06:05:52.445Z,97.09
2018-06-20T06:06:52.185Z,96.89
2018-06-20T06:07:52.442Z,97.19
2018-06-20T06:08:52.445Z,98.15
2018-06-20T06:09:52.440Z,97.86
2018-06-20T06:10:52.444Z,97.67
2018-06-20T06:11:52.474Z,97.96
2018-06-20T06:12:52.440Z,97.96
2018-06-20T06:13:52.440Z,98.24
2018-06-20T06:14:52.186Z,98.87
2018-06-20T06:15:52.178Z,98.92
2018-06-20T06:16:52.604Z,99.59
2018-06-20T06:17:52.436Z,98.2
2018-06-20T06:18:52.432Z,96.56
2018-06-20T06:19:52.437Z,99.35
2018-06-20T06:20:52.437Z,99.99
2018-06-20T06:21:52.432Z,99.99
2018-06-20T06:22:52.175Z,99.84
2018-06-20T06:23:52.430Z,98.87
2018-06-20T06:24:52.445Z,98.2
2018-06-20T06:25:52.430Z,98.77
2018-06-20T06:26:52.438Z,98.97
2018-06-20T06:27:52.433Z,99.99
2018-06-20T06:28:52.171Z,99.99
2018-06-20T06:29:52.429Z,99.99
2018-06-20T06:30:52.428Z,99.99
2018-06-20T06:31:52.433Z,99.99
2018-06-20T06:32:52.434Z,99.99
2018-06-20T06:33:52.432Z,99.99
2018-06-20T06:34:52.436Z,99.99
2018-06-20T06:35:52.434Z,99.99
2018-06-20T06:36:52.430Z,99.99
2018-06-20T06:37:52.440Z,99.99
2018-06-20T06:38:52.433Z,99.99
2018-06-20T06:39:52.443Z,99.99
2018-06-20T06:40:52.460Z,99.99
2018-06-20T06:41:52.432Z,99.99
2018-06-20T06:42:52.175Z,99.99
2018-06-20T06:43:52.474Z,99.99
2018-06-20T06:44:52.441Z,99.99
2018-06-20T06:45:52.433Z,99.99
2018-06-20T06:46:52.436Z,99.99
2018-06-20T06:47:52.442Z,99.99
2018-06-20T06:48:52.177Z,99.99
2018-06-20T06:49:52.601Z,99.99
2018-06-20T06:50:52.440Z,99.79
2018-06-20T06:51:52.440Z,98.3
2018-06-20T06:52:52.444Z,97.57
2018-06-20T06:53:52.444Z,98.58
2018-06-20T06:54:52.443Z,98.05
2018-06-20T06:55:52.188Z,98.63
2018-06-20T06:56:52.187Z,96.7
2018-06-20T06:57:52.446Z,95.59
2018-06-20T06:58:52.445Z,93.75
2018-06-20T06:59:52.191Z,93.95
2018-06-20T07:00:52.452Z,96.22
2018-06-20T07:01:52.449Z,95.06
2018-06-20T07:02:52.452Z,93.41
2018-06-20T07:03:52.198Z,88.77
2018-06-20T07:04:52.458Z,89.88
2018-06-20T07:05:52.462Z,91.62
2018-06-20T07:06:52.460Z,91.62
2018-06-20T07:07:52.465Z,87.5
2018-06-20T07:08:52.462Z,88.76
2018-06-20T07:09:52.468Z,83.63
2018-06-20T07:10:52.513Z,80.82
2018-06-20T07:11:52.470Z,81.5
2018-06-20T07:12:52.475Z,84.64
2018-06-20T07:13:52.473Z,69.41
2018-06-20T07:14:52.477Z,65.92
2018-06-20T07:15:52.486Z,60.47
2018-06-20T07:16:52.227Z,55.11
2018-06-20T07:17:52.486Z,52.89
2018-06-20T07:18:52.491Z,55.13
2018-06-20T07:19:52.494Z,53.87
2018-06-20T07:20:52.505Z,52.63
2018-06-20T07:21:52.245Z,49.83
2018-06-20T07:22:52.509Z,48.68
2018-06-20T07:23:52.519Z,45.97
2018-06-20T07:24:52.521Z,44.34
2018-06-20T07:25:52.522Z,42.32
2018-06-20T07:26:52.533Z,40.7
2018-06-20T07:27:52.274Z,36.14
2018-06-20T07:28:52.282Z,36.08
2018-06-20T07:29:52.358Z,37.17
2018-06-20T07:30:52.295Z,38.92
2018-06-20T07:31:52.300Z,39.86
2018-06-20T07:32:52.710Z,41.39
2018-06-20T07:33:52.567Z,42.11
2018-06-20T07:34:52.579Z,43.71
2018-06-20T07:35:52.881Z,47.27
2018-06-20T07:36:52.599Z,49.66
2018-06-20T07:37:52.601Z,50.68
2018-06-20T07:38:52.599Z,52.11
2018-06-20T07:39:52.605Z,52.72
2018-06-20T07:40:52.614Z,53.59
2018-06-20T07:41:52.617Z,55.32
2018-06-20T07:42:52.621Z,62.58
2018-06-20T07:43:52.634Z,63.52
2018-06-20T07:44:52.635Z,67.76
2018-06-20T07:45:52.642Z,69.38
2018-06-20T07:46:52.708Z,72.35
2018-06-20T07:47:52.718Z,74.87
2018-06-20T07:48:52.657Z,75.74
2018-06-20T07:49:52.664Z,73.52
2018-06-20T07:50:52.801Z,71.96
2018-06-20T07:51:52.669Z,71.58
2018-06-20T07:52:52.422Z,65.89
2018-06-20T07:53:52.678Z,62.84
2018-06-20T07:54:52.690Z,61.02
2018-06-20T07:55:52.708Z,55.49
2018-06-20T07:56:52.701Z,55.58
2018-06-20T07:57:52.699Z,50.87
2018-06-20T07:58:52.702Z,49.88
2018-06-20T07:59:52.709Z,49.8
2018-06-20T08:00:52.996Z,50.87
2018-06-20T08:01:52.463Z,49.88
2018-06-20T08:05:01.258Z,43.92
2018-06-20T08:06:01.258Z,42.77
2018-06-20T08:07:01.268Z,41.03
2018-06-20T08:08:01.273Z,39.49
2018-06-20T08:09:01.280Z,38.92
2018-06-20T08:10:01.282Z,43.01
2018-06-20T08:11:01.031Z,42.79
2018-06-20T08:12:01.295Z,42.97
2018-06-20T08:13:01.309Z,43.53
2018-06-20T08:14:01.310Z,43.49
2018-06-20T08:15:01.316Z,45.78
2018-06-20T08:16:01.318Z,47.39
2018-06-20T08:17:01.066Z,51.17
2018-06-20T08:18:01.071Z,52.53
2018-06-20T08:19:01.081Z,50.97
2018-06-20T08:20:01.338Z,51.14
2018-06-20T08:21:01.344Z,51.5
2018-06-20T08:22:01.354Z,55.82
2018-06-20T08:23:01.353Z,57.06
2018-06-20T08:24:01.358Z,57.9
2018-06-20T08:25:01.365Z,61.52
2018-06-20T08:26:01.373Z,62.85
2018-06-20T08:27:01.376Z,61.49
2018-06-20T08:28:01.379Z,64.01
2018-06-20T08:29:02.071Z,68.47
2018-06-20T08:30:01.850Z,68.95
2018-06-20T08:31:05.188Z,70.47
2018-06-20T08:32:02.837Z,75.21
2018-06-20T08:33:01.398Z,74.69
2018-06-20T08:34:01.407Z,76.43
2018-06-20T08:35:01.403Z,79.97
2018-06-20T08:36:01.412Z,86.93
2018-06-20T08:37:01.419Z,87.81
2018-06-20T08:38:01.417Z,85.19
2018-06-20T08:39:01.424Z,87.99
2018-06-20T08:40:01.186Z,83.16
2018-06-20T08:41:01.419Z,78.85
2018-06-20T08:42:01.424Z,78.94
2018-06-20T08:43:01.437Z,80.79
2018-06-20T08:44:01.431Z,76.62
2018-06-20T08:45:01.440Z,76.97
2018-06-20T08:46:01.458Z,82.29
2018-06-20T08:47:01.184Z,80.74
2018-06-20T08:48:01.472Z,85.83
2018-06-20T08:49:01.449Z,86.41
2018-06-20T08:50:01.459Z,89.25
2018-06-20T08:51:01.452Z,93.8
2018-06-20T08:52:01.456Z,88.57
2018-06-20T08:53:01.496Z,89.25
2018-06-20T08:54:01.461Z,87.41
2018-06-20T08:55:01.465Z,84.94
2018-06-20T08:56:01.467Z,85.72
2018-06-20T08:57:01.470Z,82.18
2018-06-20T08:58:01.468Z,75.83
2018-06-20T08:59:01.472Z,78.74
2018-06-20T09:00:01.477Z,72.92
2018-06-20T09:01:01.483Z,74.7
2018-06-20T09:02:01.225Z,77.61
2018-06-20T09:03:01.484Z,75.87
2018-06-20T09:04:01.489Z,71.64
2018-06-20T09:05:01.493Z,61.17
2018-06-20T09:06:01.499Z,59.78
2018-06-20T09:07:01.495Z,59.69
2018-06-20T09:08:01.500Z,63.92
2018-06-20T09:09:01.501Z,73.6
2018-06-20T09:10:01.511Z,86.19
2018-06-20T09:11:01.250Z,81.54
2018-06-20T09:12:01.509Z,71.86
2018-06-20T09:13:01.519Z,69.85
2018-06-20T09:14:01.517Z,67.76
2018-06-20T09:15:01.527Z,65.72
2018-06-20T09:16:01.519Z,65.27
2018-06-20T09:17:01.527Z,59.74
2018-06-20T09:18:01.534Z,58.9
2018-06-20T09:19:01.528Z,58.61
2018-06-20T09:20:01.535Z,62.19
2018-06-20T09:21:01.538Z,56.6
2018-06-20T09:22:01.293Z,56.6
2018-06-20T09:23:01.544Z,57.47
2018-06-20T09:24:01.550Z,57.47
2018-06-20T09:25:01.296Z,54.36
2018-06-20T09:26:01.298Z,57.67
2018-06-20T09:27:01.302Z,56.6
2018-06-20T09:28:01.564Z,59.03
2018-06-20T09:29:01.310Z,60.28
2018-06-20T09:30:01.647Z,55.75
2018-06-20T09:31:01.575Z,53.42
2018-06-20T09:32:01.322Z,53.03
2018-06-20T09:33:01.582Z,54.97
2018-06-20T09:34:01.328Z,59.15
2018-06-20T09:35:01.597Z,57.01
2018-06-20T09:36:01.597Z,56.7
2018-06-20T09:37:01.596Z,60.55
2018-06-20T09:38:01.606Z,60.52
2018-06-20T09:39:01.622Z,58.09
2018-06-20T09:40:01.614Z,61.17
2018-06-20T09:41:01.620Z,63.78
2018-06-20T09:42:01.362Z,65.92
2018-06-20T09:43:01.619Z,66.4
2018-06-20T09:44:01.625Z,65.47
2018-06-20T09:45:01.629Z,63.13
2018-06-20T09:46:01.635Z,59.55
2018-06-20T09:47:01.638Z,67.5
2018-06-20T09:48:01.647Z,64.04
2018-06-20T09:49:01.648Z,59.48
2018-06-20T09:50:01.649Z,60.38
2018-06-20T09:51:01.662Z,60
2018-06-20T09:52:01.656Z,55.63
2018-06-20T09:53:01.406Z,54.88
2018-06-20T09:54:01.678Z,61.09
2018-06-20T09:55:01.675Z,54
2018-06-20T09:56:01.671Z,51.57
2018-06-20T09:57:01.681Z,52.25
2018-06-20T09:58:01.927Z,54.78
2018-06-20T09:59:01.688Z,49.63
2018-06-20T10:00:01.695Z,48.75
2018-06-20T10:01:01.700Z,48.37
2018-06-20T10:02:01.702Z,49.44
2018-06-20T10:03:01.701Z,48.18
2018-06-20T10:04:01.448Z,50.68
2018-06-20T10:05:01.718Z,51.16
2018-06-20T10:06:01.724Z,51.65
2018-06-20T10:07:01.716Z,50.68
2018-06-20T10:08:01.722Z,52.33
2018-06-20T10:09:01.729Z,53.3
2018-06-20T10:10:01.734Z,51.06
2018-06-20T10:11:01.742Z,51.81
2018-06-20T10:12:01.736Z,52.11
2018-06-20T10:13:01.741Z,50.65
2018-06-20T10:14:01.753Z,55.5
2018-06-20T10:15:01.754Z,56.83
2018-06-20T10:16:01.753Z,56.74
2018-06-20T10:17:01.501Z,54.67
2018-06-20T10:18:01.763Z,66.4
2018-06-20T10:19:01.766Z,61.68
2018-06-20T10:20:01.776Z,57.9
2018-06-20T10:21:01.847Z,54.02
2018-06-20T10:22:01.777Z,55.06
2018-06-20T10:23:01.778Z,55.08
2018-06-20T10:24:01.782Z,58.58
2018-06-20T10:25:01.792Z,57.9
2018-06-20T10:26:01.788Z,58.12
2018-06-20T10:27:01.853Z,49.1
2018-06-20T10:28:01.796Z,50.14
2018-06-20T10:29:01.801Z,52.47
2018-06-20T10:30:01.803Z,53.08
2018-06-20T10:31:01.810Z,53.17
2018-06-20T10:32:01.814Z,52.59
2018-06-20T10:33:01.821Z,52.81
2018-06-20T10:34:01.822Z,52.03
2018-06-20T10:35:01.831Z,51.04
2018-06-20T10:36:01.832Z,52.66
2018-06-20T10:37:01.835Z,53.95
2018-06-20T10:38:01.840Z,53.37
2018-06-20T10:39:01.895Z,54.05
2018-06-20T10:40:01.650Z,54.92
2018-06-20T10:41:01.847Z,53.3
2018-06-20T10:42:01.849Z,53.81
2018-06-20T10:43:01.855Z,55.75
2018-06-20T10:44:01.602Z,53.74
2018-06-20T10:45:01.866Z,51.5
2018-06-20T10:46:02.121Z,48.71
2018-06-20T10:47:01.924Z,49.27
2018-06-20T10:48:01.881Z,50.85
2018-06-20T10:49:01.883Z,52.59
2018-06-20T10:50:01.885Z,50.75
2018-06-20T10:51:01.632Z,51.53
2018-06-20T10:52:01.901Z,50.85
2018-06-20T10:53:01.896Z,54.83
2018-06-20T10:54:01.905Z,51.7
2018-06-20T10:55:01.909Z,46.35
2018-06-20T10:56:01.915Z,45.09
2018-06-20T10:57:01.914Z,48.68
2018-06-20T10:58:01.918Z,58.18
2018-06-20T10:59:01.923Z,53.64
2018-06-20T11:00:01.936Z,52.67
2018-06-20T11:01:01.934Z,50.73
2018-06-20T11:02:01.683Z,53.25
2018-06-20T11:03:01.944Z,53.47
2018-06-20T11:04:01.692Z,51.14
2018-06-20T11:05:01.958Z,50.29
2018-06-20T11:06:01.959Z,49.51
2018-06-20T11:07:02.054Z,48.34
2018-06-20T11:08:01.966Z,47.08
2018-06-20T11:09:01.971Z,50.09
2018-06-20T11:10:02.005Z,48.51
2018-06-20T11:11:01.986Z,47.17
2018-06-20T11:12:01.986Z,47.47
2018-06-20T11:13:01.731Z,48.63
2018-06-20T11:14:02.135Z,46.69
2018-06-20T11:15:02.000Z,47.76
2018-06-20T11:16:02.005Z,50.87
2018-06-20T11:17:02.014Z,49.32
2018-06-20T11:18:02.014Z,43.3
2018-06-20T11:19:02.017Z,43.21
2018-06-20T11:20:02.030Z,49.44
2018-06-20T11:21:02.033Z,44.48
2018-06-20T11:22:02.039Z,43.5
2018-06-20T11:23:02.044Z,46.03
2018-06-20T11:24:02.042Z,45.45
2018-06-20T11:25:02.051Z,45.06
2018-06-20T11:26:02.055Z,45.23
2018-06-20T11:27:02.061Z,46.78
2018-06-20T11:28:02.074Z,47.25
2018-06-20T11:29:02.082Z,48.41
2018-06-20T11:30:02.083Z,49.37
2018-06-20T11:31:02.110Z,48.03
2018-06-20T11:32:02.091Z,48.51
2018-06-20T11:33:01.832Z,49.49
2018-06-20T11:34:01.842Z,50.68
2018-06-20T11:35:02.097Z,48.36
2018-06-20T11:36:02.112Z,47.98
2018-06-20T11:37:02.114Z,49.44
2018-06-20T11:38:01.873Z,48.56
2018-06-20T11:39:02.121Z,44.86
2018-06-20T11:40:02.124Z,46.59
2018-06-20T11:41:02.132Z,46.96
2018-06-20T11:42:02.136Z,48.9
2018-06-20T11:43:02.142Z,53.45
2018-06-20T11:44:02.148Z,53.06
2018-06-20T11:45:02.153Z,51.48
2018-06-20T11:46:02.161Z,50.7
2018-06-20T11:47:02.161Z,50.58
2018-06-20T11:48:02.165Z,53.49
2018-06-20T11:49:02.173Z,49.22
2018-06-20T11:50:02.277Z,50.19
2018-06-20T11:51:01.936Z,50.68
2018-06-20T11:52:02.184Z,53.49
2018-06-20T11:53:02.191Z,53.75
2018-06-20T11:54:02.195Z,54.44
2018-06-20T11:55:02.198Z,54.92
2018-06-20T11:56:02.201Z,51.53
2018-06-20T11:57:02.210Z,51.62
2018-06-20T11:58:02.256Z,56.76
2018-06-20T11:59:02.217Z,58.93
2018-06-20T12:00:01.967Z,56.11
2018-06-20T12:01:02.233Z,52.72
2018-06-20T12:02:02.237Z,50.87
2018-06-20T12:03:02.235Z,50.99
2018-06-20T12:04:02.248Z,53.1
2018-06-20T12:05:02.243Z,58.28
2018-06-20T12:06:02.248Z,56.92
2018-06-20T12:07:02.254Z,53.91
2018-06-20T12:08:02.256Z,52.55
2018-06-20T12:09:02.257Z,53.91
2018-06-20T12:10:02.268Z,54.68
2018-06-20T12:11:02.268Z,51.21
2018-06-20T12:12:02.279Z,49.27
2018-06-20T12:13:02.287Z,50.63
2018-06-20T12:14:02.283Z,48.8
2018-06-20T12:15:02.030Z,50.07
2018-06-20T12:16:02.295Z,50.09
2018-06-20T12:17:02.297Z,49.99
2018-06-20T12:18:02.309Z,48.46
2018-06-20T12:19:02.308Z,48.17
2018-06-20T12:20:02.318Z,47.8
2018-06-20T12:21:02.319Z,47.32
2018-06-20T12:22:02.427Z,47.03
2018-06-20T12:23:02.329Z,45.84
2018-06-20T12:24:02.334Z,45.25
2018-06-20T12:25:02.338Z,44.84
2018-06-20T12:26:02.341Z,45.14
2018-06-20T12:27:02.092Z,45.32
2018-06-20T12:28:02.349Z,46.01
2018-06-20T12:29:02.102Z,47.76
2018-06-20T12:30:02.365Z,48.73
2018-06-20T12:31:02.366Z,50.68
2018-06-20T12:32:02.375Z,47.86
2018-06-20T12:33:02.381Z,46.23
2018-06-20T12:34:02.405Z,46.81
2018-06-20T12:35:02.408Z,48.75
2018-06-20T12:36:02.409Z,46.61
2018-06-20T12:37:02.402Z,49.46
2018-06-20T12:38:02.413Z,44.79
2018-06-20T12:39:02.414Z,44.89
2018-06-20T12:40:02.435Z,44.69
2018-06-20T12:41:02.523Z,44.4
2018-06-20T12:42:02.170Z,44.67
2018-06-20T12:43:02.430Z,45.84
2018-06-20T12:44:02.435Z,44.48
2018-06-20T12:45:02.464Z,44.86
2018-06-20T12:46:02.474Z,45.45
2018-06-20T12:47:02.627Z,46.23
2018-06-20T12:48:02.456Z,46.23
2018-06-20T12:49:02.465Z,47.3
2018-06-20T12:50:02.474Z,50.21
2018-06-20T12:51:02.479Z,49.63
2018-06-20T12:52:02.477Z,48.05
2018-06-20T12:53:02.485Z,46.69
2018-06-20T12:54:02.491Z,47.86
2018-06-20T12:55:02.497Z,48.54
2018-06-20T12:56:02.516Z,49.22
2018-06-20T12:57:02.505Z,46.78
2018-06-20T12:58:02.508Z,46.11